createdAt,value
2023-01-29T00:00:33.597Z,4.30
2023-01-29T00:03:00.140Z,4.20
2023-01-29T00:05:28.374Z,4.90
2023-01-29T00:07:55.329Z,4.27
2023-01-29T00:10:22.029Z,4.13
2023-01-29T00:12:49.888Z,4.13
2023-01-29T00:15:16.947Z,4.60
2023-01-29T00:17:43.440Z,4.17
2023-01-29T00:20:11.319Z,3.93
2023-01-29T00:22:37.846Z,4.20
2023-01-29T00:25:05.019Z,4.00
2023-01-29T00:27:31.491Z,3.77
2023-01-29T00:29:59.333Z,4.10
2023-01-29T00:32:25.823Z,3.73
2023-01-29T00:34:52.325Z,4.23
2023-01-29T00:37:18.818Z,4.20
2023-01-29T00:39:48.197Z,8.07
2023-01-29T00:42:14.988Z,3.87
2023-01-29T00:44:41.500Z,4.83
2023-01-29T00:47:09.609Z,3.97
2023-01-29T00:49:36.191Z,4.60
2023-01-29T00:52:02.752Z,5.53
2023-01-29T00:54:29.258Z,4.60
2023-01-29T00:56:55.789Z,3.60
2023-01-29T00:59:22.291Z,3.77
2023-01-29T01:01:48.815Z,4.23
2023-01-29T01:04:16.695Z,4.13
2023-01-29T01:06:43.517Z,3.87
2023-01-29T01:09:10.743Z,4.23
2023-01-29T01:11:37.241Z,3.67
2023-01-29T01:14:03.774Z,3.80
2023-01-29T01:16:30.320Z,4.07
2023-01-29T01:18:56.892Z,5.80
2023-01-29T01:21:24.821Z,4.87
2023-01-29T01:23:51.368Z,3.63
2023-01-29T01:26:18.007Z,3.97
2023-01-29T01:28:44.914Z,3.50
2023-01-29T01:31:12.544Z,5.23
2023-01-29T01:33:39.349Z,5.60
2023-01-29T01:36:07.582Z,5.83
2023-01-29T01:38:36.503Z,4.60
2023-01-29T01:41:02.992Z,4.63
2023-01-29T01:43:50.657Z,4.97
2023-01-29T01:46:17.546Z,4.13
2023-01-29T01:48:45.591Z,4.63
2023-01-29T01:51:12.941Z,4.90
2023-01-29T01:53:44.796Z,4.37
2023-01-29T01:56:16.418Z,3.40
2023-01-29T01:58:47.762Z,3.83
2023-01-29T02:01:14.396Z,3.87
2023-01-29T02:03:44.441Z,4.10
2023-01-29T02:06:11.374Z,4.00
2023-01-29T02:08:47.517Z,3.60
2023-01-29T02:11:14.065Z,4.67
2023-01-29T02:13:40.793Z,4.10
2023-01-29T02:16:08.041Z,4.50
2023-01-29T02:18:34.552Z,5.03
2023-01-29T02:21:14.927Z,5.50
2023-01-29T02:24:11.322Z,4.53
2023-01-29T02:26:45.756Z,3.93
2023-01-29T02:29:19.713Z,4.07
2023-01-29T02:31:51.930Z,3.70
2023-01-29T02:34:24.108Z,5.23
2023-01-29T02:36:57.467Z,4.33
2023-01-29T02:39:31.670Z,4.53
2023-01-29T02:42:02.542Z,5.13
2023-01-29T02:44:37.855Z,4.63
2023-01-29T02:47:10.547Z,5.77
2023-01-29T02:49:45.134Z,4.90
2023-01-29T02:52:17.512Z,4.27
2023-01-29T02:54:48.080Z,4.50
2023-01-29T02:57:18.215Z,4.47
2023-01-29T02:59:51.238Z,5.10
2023-01-29T03:02:21.281Z,4.40
2023-01-29T03:04:52.750Z,4.73
2023-01-29T03:07:25.377Z,4.57
2023-01-29T03:09:54.398Z,4.30
2023-01-29T03:12:26.220Z,5.47
2023-01-29T03:14:55.954Z,4.37
2023-01-29T03:17:26.636Z,4.13
2023-01-29T03:19:54.164Z,3.97
2023-01-29T03:22:21.386Z,4.17
2023-01-29T03:24:50.471Z,4.63
2023-01-29T03:27:20.475Z,4.93
2023-01-29T03:29:50.105Z,5.77
2023-01-29T03:32:19.677Z,4.77
2023-01-29T03:34:49.913Z,4.20
2023-01-29T03:37:21.089Z,4.33
2023-01-29T03:39:47.772Z,4.60
2023-01-29T03:42:22.128Z,4.53
2023-01-29T03:44:57.551Z,4.30
2023-01-29T03:47:37.390Z,4.03
2023-01-29T03:50:09.636Z,4.60
2023-01-29T03:52:42.607Z,5.27
2023-01-29T03:55:15.318Z,5.03
2023-01-29T03:57:49.440Z,5.67
2023-01-29T04:00:19.139Z,4.83
2023-01-29T04:02:53.590Z,4.67
2023-01-29T04:05:22.629Z,4.40
2023-01-29T04:07:54.599Z,5.20
2023-01-29T04:10:25.698Z,5.20
2023-01-29T04:12:56.805Z,6.30
2023-01-29T04:15:27.338Z,4.20
2023-01-29T04:17:56.250Z,5.57
2023-01-29T04:20:23.508Z,5.23
2023-01-29T04:22:51.586Z,4.83
2023-01-29T04:25:21.606Z,4.90
2023-01-29T04:27:57.529Z,4.97
2023-01-29T04:30:33.154Z,4.23
2023-01-29T04:33:12.784Z,5.60
2023-01-29T04:35:49.681Z,4.50
2023-01-29T04:38:23.582Z,4.70
2023-01-29T04:40:55.072Z,4.90
2023-01-29T04:43:28.576Z,5.53
2023-01-29T04:46:10.101Z,4.80
2023-01-29T04:48:49.830Z,5.03
2023-01-29T04:51:22.555Z,5.73
2023-01-29T04:53:55.218Z,4.93
2023-01-29T04:56:30.087Z,4.30
2023-01-29T04:59:00.499Z,4.27
2023-01-29T05:01:30.583Z,5.93
2023-01-29T05:04:02.036Z,5.33
2023-01-29T05:06:30.358Z,4.80
2023-01-29T05:08:57.710Z,5.17
2023-01-29T05:11:25.704Z,4.47
2023-01-29T05:13:52.471Z,4.90
2023-01-29T05:16:22.457Z,4.73
2023-01-29T05:18:49.366Z,4.23
2023-01-29T05:21:18.152Z,4.50
2023-01-29T05:23:44.666Z,5.80
2023-01-29T05:26:11.224Z,6.00
2023-01-29T05:28:37.737Z,5.57
2023-01-29T05:31:04.352Z,7.50
2023-01-29T05:33:31.510Z,6.30
2023-01-29T05:35:59.644Z,6.13
2023-01-29T05:38:27.543Z,6.90
2023-01-29T05:40:54.103Z,5.33
2023-01-29T05:43:22.516Z,4.80
2023-01-29T05:45:53.206Z,5.30
2023-01-29T05:48:19.841Z,5.13
2023-01-29T05:50:46.336Z,5.90
2023-01-29T05:53:12.858Z,5.47
2023-01-29T05:55:44.292Z,4.37
2023-01-29T05:58:10.967Z,4.20
2023-01-29T06:00:37.920Z,5.70
2023-01-29T06:03:04.519Z,4.97
2023-01-29T06:05:31.108Z,5.50
2023-01-29T06:07:57.690Z,5.80
2023-01-29T06:10:24.656Z,6.07
2023-01-29T06:12:52.551Z,5.27
2023-01-29T06:15:19.045Z,6.13
2023-01-29T06:17:45.576Z,6.97
2023-01-29T06:20:13.365Z,5.83
2023-01-29T06:22:39.907Z,5.33
2023-01-29T06:25:07.697Z,5.70
2023-01-29T06:27:34.219Z,5.30
2023-01-29T06:30:02.285Z,5.43
2023-01-29T06:32:28.800Z,5.90
2023-01-29T06:34:55.311Z,5.30
2023-01-29T06:37:21.839Z,5.70
2023-01-29T06:39:48.383Z,5.50
2023-01-29T06:42:14.877Z,6.57
2023-01-29T06:44:41.386Z,7.17
2023-01-29T06:47:09.241Z,6.77
2023-01-29T06:49:35.734Z,5.63
2023-01-29T06:52:02.258Z,6.63
2023-01-29T06:54:28.771Z,7.13
2023-01-29T06:56:55.291Z,6.13
2023-01-29T06:59:21.806Z,6.07
2023-01-29T07:01:48.477Z,7.07
2023-01-29T07:04:16.375Z,5.90
2023-01-29T07:06:42.909Z,7.17
2023-01-29T07:09:11.639Z,6.13
2023-01-29T07:11:38.183Z,5.37
2023-01-29T07:14:04.753Z,6.50
2023-01-29T07:16:31.583Z,8.80
2023-01-29T07:18:58.255Z,6.23
2023-01-29T07:21:26.122Z,7.00
2023-01-29T07:23:52.656Z,7.20
2023-01-29T07:26:19.250Z,8.10
2023-01-29T07:28:45.778Z,7.40
2023-01-29T07:31:14.016Z,6.77
2023-01-29T07:33:42.517Z,7.53
2023-01-29T07:36:09.667Z,7.13
2023-01-29T07:38:37.582Z,7.10
2023-01-29T07:41:04.232Z,7.13
2023-01-29T07:43:30.884Z,14.80
2023-01-29T07:46:01.885Z,14.40
2023-01-29T07:48:28.650Z,11.83
2023-01-29T07:50:55.922Z,10.53
2023-01-29T07:53:22.783Z,9.83
2023-01-29T07:55:50.990Z,10.67
2023-01-29T07:58:17.523Z,11.50
2023-01-29T08:00:44.398Z,9.63
2023-01-29T08:03:12.776Z,9.23
2023-01-29T08:05:39.331Z,7.30
2023-01-29T08:08:07.684Z,7.20
2023-01-29T08:10:34.568Z,9.03
2023-01-29T08:13:03.669Z,10.90
2023-01-29T08:15:30.700Z,7.60
2023-01-29T08:17:58.401Z,8.57
2023-01-29T08:20:25.663Z,6.93
2023-01-29T08:22:58.879Z,7.17
2023-01-29T08:25:25.659Z,5.27
2023-01-29T08:27:52.356Z,5.30
2023-01-29T08:30:20.328Z,5.07
2023-01-29T08:32:46.856Z,5.70
2023-01-29T08:35:13.523Z,6.50
2023-01-29T08:37:40.023Z,5.80
2023-01-29T08:40:08.030Z,5.97
2023-01-29T08:42:34.586Z,7.47
2023-01-29T08:45:01.134Z,7.90
2023-01-29T08:47:29.724Z,5.03
2023-01-29T08:49:56.299Z,5.10
2023-01-29T08:52:22.829Z,5.33
2023-01-29T08:54:49.340Z,4.97
2023-01-29T08:57:15.857Z,5.17
2023-01-29T08:59:42.374Z,5.50
2023-01-29T09:02:10.591Z,5.80
2023-01-29T09:04:38.471Z,5.00
2023-01-29T09:07:04.991Z,6.37
2023-01-29T09:09:31.480Z,4.13
2023-01-29T09:11:57.943Z,3.90
2023-01-29T09:14:24.497Z,3.60
2023-01-29T09:16:51.024Z,3.70
2023-01-29T09:19:17.565Z,4.03
2023-01-29T09:21:45.394Z,4.17
2023-01-29T09:24:11.927Z,4.00
2023-01-29T09:26:38.535Z,4.00
2023-01-29T09:29:05.363Z,4.73
2023-01-29T09:31:32.156Z,4.17
2023-01-29T09:33:58.680Z,3.93
2023-01-29T09:36:25.274Z,3.73
2023-01-29T09:38:53.163Z,4.53
2023-01-29T09:41:33.535Z,4.10
2023-01-29T09:44:03.731Z,3.30
2023-01-29T09:46:35.371Z,4.53
2023-01-29T09:49:07.223Z,4.00
2023-01-29T09:51:40.350Z,4.03
2023-01-29T09:54:17.648Z,4.40
2023-01-29T09:56:45.894Z,4.50
2023-01-29T09:59:14.286Z,4.43
2023-01-29T10:01:48.932Z,4.20
2023-01-29T10:04:37.530Z,4.23
2023-01-29T10:07:19.488Z,4.33
2023-01-29T10:10:05.488Z,4.13
2023-01-29T10:12:45.706Z,4.00
2023-01-29T10:15:23.177Z,4.10
2023-01-29T10:18:01.005Z,4.50
2023-01-29T10:20:42.060Z,4.30
2023-01-29T10:23:18.341Z,3.60
2023-01-29T10:25:47.111Z,3.30
2023-01-29T10:28:17.857Z,3.67
2023-01-29T10:30:49.041Z,4.67
2023-01-29T10:33:19.034Z,6.03
2023-01-29T10:35:49.406Z,4.57
2023-01-29T10:38:25.751Z,3.63
2023-01-29T10:41:03.925Z,3.70
2023-01-29T10:43:40.858Z,4.40
2023-01-29T10:46:20.461Z,4.77
2023-01-29T10:48:59.966Z,3.83
2023-01-29T10:51:40.481Z,3.57
2023-01-29T10:54:19.314Z,4.33
2023-01-29T10:57:00.121Z,4.03
2023-01-29T10:59:39.311Z,4.63
2023-01-29T11:02:15.125Z,4.07
2023-01-29T11:04:41.630Z,3.70
2023-01-29T11:07:08.769Z,6.40
2023-01-29T11:09:39.781Z,4.33
2023-01-29T11:12:13.028Z,4.37
2023-01-29T11:14:48.725Z,5.10
2023-01-29T11:17:16.652Z,4.90
2023-01-29T11:19:45.093Z,4.10
2023-01-29T11:22:14.153Z,3.97
2023-01-29T11:24:40.701Z,4.10
2023-01-29T11:27:21.384Z,4.17
2023-01-29T11:29:48.362Z,4.20
2023-01-29T11:32:25.881Z,4.83
2023-01-29T11:35:03.751Z,4.37
2023-01-29T11:37:35.533Z,5.13
2023-01-29T11:40:22.907Z,4.50
2023-01-29T11:42:51.034Z,4.13
2023-01-29T11:45:26.546Z,5.30
2023-01-29T11:47:54.581Z,4.03
2023-01-29T11:50:24.081Z,5.60
2023-01-29T11:52:50.746Z,4.93
2023-01-29T11:55:20.737Z,4.30
2023-01-29T11:57:52.504Z,4.43
2023-01-29T12:00:23.733Z,4.53
2023-01-29T12:02:54.622Z,4.20
2023-01-29T12:05:23.573Z,4.30
2023-01-29T12:07:53.917Z,5.30
2023-01-29T12:10:31.325Z,5.73
2023-01-29T12:13:06.753Z,6.63
2023-01-29T12:15:33.478Z,6.00
2023-01-29T12:18:11.980Z,7.60
2023-01-29T12:20:41.391Z,6.40
2023-01-29T12:23:22.761Z,6.80
2023-01-29T12:25:58.945Z,6.50
2023-01-29T12:28:42.769Z,5.73
2023-01-29T12:31:21.870Z,6.17
2023-01-29T12:33:53.431Z,5.67
2023-01-29T12:36:25.674Z,7.23
2023-01-29T12:38:52.471Z,7.00
2023-01-29T12:41:28.407Z,9.17
2023-01-29T12:43:59.740Z,7.17
2023-01-29T12:46:29.332Z,7.83
2023-01-29T12:49:00.193Z,6.73
2023-01-29T12:51:33.397Z,7.40
2023-01-29T12:54:04.872Z,7.00
2023-01-29T12:56:34.598Z,8.10
2023-01-29T12:59:09.544Z,5.77
2023-01-29T13:01:42.713Z,6.53
2023-01-29T13:04:14.788Z,8.00
2023-01-29T13:06:45.360Z,7.47
2023-01-29T13:09:15.428Z,7.57
2023-01-29T13:11:53.380Z,8.73
2023-01-29T13:14:25.103Z,7.83
2023-01-29T13:16:53.970Z,6.87
2023-01-29T13:19:28.456Z,6.10
2023-01-29T13:21:57.422Z,6.17
2023-01-29T13:24:25.848Z,6.93
2023-01-29T13:26:53.197Z,7.60
2023-01-29T13:29:24.548Z,11.93
2023-01-29T13:31:53.054Z,8.10
2023-01-29T13:34:23.131Z,12.87
2023-01-29T13:36:52.113Z,8.60
2023-01-29T13:39:24.311Z,7.30
2023-01-29T13:41:52.476Z,7.50
2023-01-29T13:44:24.136Z,7.03
2023-01-29T13:46:55.331Z,6.60
2023-01-29T13:49:31.577Z,6.70
2023-01-29T13:51:59.436Z,7.40
2023-01-29T13:54:27.041Z,8.50
2023-01-29T13:56:59.081Z,7.40
2023-01-29T13:59:50.649Z,8.07
2023-01-29T14:02:25.515Z,7.77
2023-01-29T14:05:12.563Z,8.40
2023-01-29T14:07:50.982Z,7.00
2023-01-29T14:10:20.451Z,7.40
2023-01-29T14:12:51.918Z,7.73
2023-01-29T14:15:28.935Z,7.23
2023-01-29T14:18:17.456Z,7.77
2023-01-29T14:20:58.266Z,7.23
2023-01-29T14:23:32.764Z,7.73
2023-01-29T14:26:01.642Z,7.37
2023-01-29T14:28:30.780Z,8.60
2023-01-29T14:30:59.610Z,7.77
2023-01-29T14:33:35.060Z,8.37
2023-01-29T14:36:05.345Z,7.47
2023-01-29T14:38:32.892Z,7.40
2023-01-29T14:41:07.378Z,6.73
2023-01-29T14:43:33.957Z,10.00
2023-01-29T14:46:33.923Z,13.30
2023-01-29T14:49:01.966Z,10.70
2023-01-29T14:51:36.336Z,9.13
2023-01-29T14:54:05.917Z,13.93
2023-01-29T14:56:35.454Z,10.00
2023-01-29T14:59:13.529Z,7.60
2023-01-29T15:01:46.299Z,7.27
2023-01-29T15:04:17.274Z,6.93
2023-01-29T15:06:46.405Z,7.70
2023-01-29T15:09:15.836Z,7.80
2023-01-29T15:11:52.395Z,7.17
2023-01-29T15:14:28.777Z,5.50
2023-01-29T15:17:18.919Z,6.73
2023-01-29T15:19:48.301Z,5.60
2023-01-29T15:22:16.445Z,6.57
2023-01-29T15:24:44.164Z,5.73
2023-01-29T15:27:14.366Z,7.73
2023-01-29T15:29:41.679Z,7.93
2023-01-29T15:32:15.434Z,7.37
2023-01-29T15:34:42.997Z,7.43
2023-01-29T15:37:27.208Z,7.93
2023-01-29T15:39:53.995Z,6.90
2023-01-29T15:42:20.560Z,7.00
2023-01-29T15:44:47.095Z,7.20
2023-01-29T15:47:15.074Z,7.93
2023-01-29T15:49:42.266Z,7.60
2023-01-29T15:52:17.371Z,7.33
2023-01-29T15:54:46.234Z,7.93
2023-01-29T15:57:20.135Z,7.93
2023-01-29T15:59:47.798Z,6.97
2023-01-29T16:02:35.631Z,7.43
2023-01-29T16:05:03.455Z,7.70
2023-01-29T16:07:30.504Z,8.30
2023-01-29T16:09:59.135Z,8.60
2023-01-29T16:12:25.972Z,7.43
2023-01-29T16:14:52.857Z,9.50
2023-01-29T16:17:31.441Z,16.07
2023-01-29T16:19:59.301Z,10.43
2023-01-29T16:22:26.821Z,11.50
2023-01-29T16:24:54.597Z,10.00
2023-01-29T16:27:25.025Z,8.97
2023-01-29T16:29:51.889Z,8.87
2023-01-29T16:32:20.377Z,8.50
2023-01-29T16:34:48.917Z,9.70
2023-01-29T16:37:22.846Z,7.80
2023-01-29T16:39:50.775Z,8.43
2023-01-29T16:42:24.177Z,8.23
2023-01-29T16:44:52.678Z,7.40
2023-01-29T16:47:27.059Z,15.93
2023-01-29T16:49:55.059Z,16.10
2023-01-29T16:52:25.218Z,17.83
2023-01-29T16:54:52.657Z,14.80
2023-01-29T16:57:24.780Z,12.80
2023-01-29T16:59:54.707Z,13.73
2023-01-29T17:02:25.806Z,12.20
2023-01-29T17:04:57.173Z,10.33
2023-01-29T17:07:24.412Z,8.47
2023-01-29T17:09:54.379Z,8.70
2023-01-29T17:12:24.935Z,8.60
2023-01-29T17:14:56.502Z,8.33
2023-01-29T17:17:29.501Z,9.83
2023-01-29T17:19:56.207Z,13.37
2023-01-29T17:22:22.796Z,20.80
2023-01-29T17:24:49.513Z,22.83
2023-01-29T17:27:19.231Z,24.03
2023-01-29T17:29:47.579Z,28.83
2023-01-29T17:32:14.520Z,23.27
2023-01-29T17:34:41.081Z,26.93
2023-01-29T17:37:12.645Z,31.60
2023-01-29T17:39:39.680Z,33.87
2023-01-29T17:42:06.184Z,34.87
2023-01-29T17:44:32.727Z,32.53
2023-01-29T17:47:00.571Z,38.57
2023-01-29T17:49:29.636Z,37.67
2023-01-29T17:51:56.789Z,34.47
2023-01-29T17:54:24.151Z,29.57
2023-01-29T17:56:51.301Z,28.37
2023-01-29T17:59:19.394Z,29.93
2023-01-29T18:01:46.723Z,33.40
2023-01-29T18:04:14.732Z,33.63
2023-01-29T18:06:42.880Z,39.73
2023-01-29T18:09:13.100Z,37.87
2023-01-29T18:11:39.664Z,36.10
2023-01-29T18:14:13.883Z,36.33
2023-01-29T18:16:42.302Z,32.67
2023-01-29T18:19:16.210Z,23.00
2023-01-29T18:21:42.749Z,13.03
2023-01-29T18:24:09.275Z,9.63
2023-01-29T18:26:36.022Z,15.57
2023-01-29T18:29:03.069Z,15.80
2023-01-29T18:31:29.627Z,15.07
2023-01-29T18:33:56.218Z,14.97
2023-01-29T18:36:24.082Z,11.53
2023-01-29T18:38:50.654Z,14.10
2023-01-29T18:41:17.351Z,18.47
2023-01-29T18:43:43.909Z,20.80
2023-01-29T18:46:10.909Z,21.77
2023-01-29T18:48:37.482Z,18.77
2023-01-29T18:51:04.566Z,21.87
2023-01-29T18:53:32.502Z,20.17
2023-01-29T18:56:00.506Z,22.37
2023-01-29T18:58:35.961Z,23.23
2023-01-29T19:01:05.061Z,23.37
2023-01-29T19:03:31.627Z,25.80
2023-01-29T19:06:00.907Z,23.10
2023-01-29T19:08:27.430Z,32.87
2023-01-29T19:10:55.294Z,32.03
2023-01-29T19:13:21.829Z,26.13
2023-01-29T19:15:48.367Z,21.33
2023-01-29T19:18:15.150Z,17.33
2023-01-29T19:20:41.839Z,19.20
2023-01-29T19:23:08.497Z,18.17
2023-01-29T19:25:37.582Z,20.67
2023-01-29T19:28:06.848Z,18.33
2023-01-29T19:30:33.877Z,25.27
2023-01-29T19:33:00.811Z,17.73
2023-01-29T19:35:27.602Z,14.47
2023-01-29T19:37:54.215Z,15.47
2023-01-29T19:40:20.755Z,14.20
2023-01-29T19:42:47.664Z,14.37
2023-01-29T19:45:15.903Z,14.57
2023-01-29T19:47:43.533Z,15.73
2023-01-29T19:50:11.283Z,15.17
2023-01-29T19:52:50.627Z,17.23
2023-01-29T19:55:19.623Z,18.27
2023-01-29T19:57:46.942Z,19.20
2023-01-29T20:00:15.976Z,18.93
2023-01-29T20:02:42.528Z,17.70
2023-01-29T20:05:09.419Z,18.97
2023-01-29T20:07:36.028Z,17.17
2023-01-29T20:10:02.760Z,17.53
2023-01-29T20:12:29.307Z,17.27
2023-01-29T20:14:55.823Z,16.40
2023-01-29T20:17:23.699Z,15.90
2023-01-29T20:19:50.294Z,17.60
2023-01-29T20:22:16.894Z,17.93
2023-01-29T20:24:43.409Z,18.00
2023-01-29T20:27:10.378Z,18.57
2023-01-29T20:29:37.171Z,20.20
2023-01-29T20:32:04.320Z,20.70
2023-01-29T20:34:32.243Z,20.90
2023-01-29T20:36:58.877Z,21.80
2023-01-29T20:39:25.428Z,25.47
2023-01-29T20:41:51.968Z,24.60
2023-01-29T20:44:18.511Z,23.53
2023-01-29T20:46:45.256Z,25.23
2023-01-29T20:49:11.746Z,21.73
2023-01-29T20:51:39.659Z,23.37
2023-01-29T20:54:06.176Z,24.47
2023-01-29T20:56:40.842Z,24.10
2023-01-29T20:59:13.114Z,24.13
2023-01-29T21:01:39.680Z,22.27
2023-01-29T21:04:06.206Z,20.03
2023-01-29T21:06:32.759Z,20.97
2023-01-29T21:09:00.644Z,19.70
2023-01-29T21:11:27.193Z,20.57
2023-01-29T21:13:53.691Z,20.33
2023-01-29T21:16:20.222Z,24.20
2023-01-29T21:18:46.735Z,22.67
2023-01-29T21:21:13.263Z,21.90
2023-01-29T21:23:39.825Z,23.83
2023-01-29T21:26:07.828Z,22.23
2023-01-29T21:28:34.620Z,19.07
2023-01-29T21:31:05.495Z,17.00
2023-01-29T21:33:32.013Z,16.73
2023-01-29T21:35:58.685Z,14.63
2023-01-29T21:38:25.399Z,13.73
2023-01-29T21:40:51.961Z,25.23
2023-01-29T21:43:19.816Z,17.70
2023-01-29T21:45:46.425Z,17.50
2023-01-29T21:48:12.962Z,13.90
2023-01-29T21:50:39.504Z,13.90
2023-01-29T21:53:06.050Z,14.90
2023-01-29T21:55:32.810Z,14.00
2023-01-29T21:57:59.699Z,14.37
2023-01-29T22:00:27.944Z,11.73
2023-01-29T22:02:54.603Z,11.93
2023-01-29T22:05:21.197Z,16.53
2023-01-29T22:07:48.082Z,12.83
2023-01-29T22:10:15.735Z,12.63
2023-01-29T22:12:42.719Z,12.73
2023-01-29T22:15:10.459Z,14.13
2023-01-29T22:17:38.416Z,12.57
2023-01-29T22:20:06.164Z,12.07
2023-01-29T22:22:32.649Z,11.60
2023-01-29T22:24:59.138Z,13.03
2023-01-29T22:27:25.688Z,15.90
2023-01-29T22:29:52.180Z,16.97
2023-01-29T22:32:18.741Z,13.97
2023-01-29T22:34:46.603Z,12.10
2023-01-29T22:37:13.113Z,14.90
2023-01-29T22:39:39.640Z,13.87
2023-01-29T22:42:06.129Z,13.43
2023-01-29T22:44:32.657Z,12.27
2023-01-29T22:46:59.560Z,12.00
2023-01-29T22:49:26.324Z,13.07
2023-01-29T22:51:54.162Z,11.20
2023-01-29T22:54:20.689Z,12.20
2023-01-29T22:56:47.186Z,11.03
2023-01-29T22:59:13.673Z,10.87
2023-01-29T23:01:40.294Z,12.80
2023-01-29T23:04:06.883Z,12.27
2023-01-29T23:06:33.355Z,10.70
2023-01-29T23:09:01.215Z,9.43
2023-01-29T23:11:27.812Z,10.20
2023-01-29T23:13:54.741Z,9.33
2023-01-29T23:16:23.468Z,11.33
2023-01-29T23:18:52.267Z,11.23
2023-01-29T23:21:19.359Z,10.60
2023-01-29T23:23:45.941Z,11.00
2023-01-29T23:26:14.517Z,12.83
2023-01-29T23:28:41.042Z,13.67
2023-01-29T23:31:07.634Z,11.20
2023-01-29T23:33:34.195Z,11.70
2023-01-29T23:36:00.716Z,11.80
2023-01-29T23:38:27.209Z,12.37
2023-01-29T23:40:53.721Z,16.73
2023-01-29T23:43:21.595Z,11.80
2023-01-29T23:45:48.107Z,12.27
2023-01-29T23:48:14.631Z,12.90
2023-01-29T23:50:41.163Z,11.50
2023-01-29T23:53:07.665Z,10.27
2023-01-29T23:55:34.171Z,11.67
2023-01-29T23:58:00.674Z,9.93
